createdAt,value
2022-11-03T00:02:27.770Z,19.08
2022-11-03T00:04:58.088Z,17.60
2022-11-03T00:07:28.313Z,17.38
2022-11-03T00:09:58.570Z,17.08
2022-11-03T00:12:28.784Z,17.45
2022-11-03T00:14:58.887Z,16.95
2022-11-03T00:17:29.083Z,16.63
2022-11-03T00:19:59.122Z,17.25
2022-11-03T00:22:29.382Z,16.88
2022-11-03T00:24:59.596Z,21.35
2022-11-03T00:27:29.975Z,19.80
2022-11-03T00:30:00.189Z,18.10
2022-11-03T00:32:30.267Z,18.83
2022-11-03T00:35:00.394Z,18.55
2022-11-03T00:37:30.771Z,16.77
2022-11-03T00:40:01.017Z,17.48
2022-11-03T00:42:31.156Z,18.42
2022-11-03T00:45:01.240Z,18.25
2022-11-03T00:47:31.293Z,16.55
2022-11-03T00:50:01.333Z,17.08
2022-11-03T00:52:31.319Z,17.20
2022-11-03T00:55:01.388Z,16.73
2022-11-03T00:57:31.401Z,16.67
2022-11-03T01:00:01.472Z,16.90
2022-11-03T01:02:31.576Z,16.60
2022-11-03T01:05:19.713Z,18.30
2022-11-03T01:07:50.008Z,16.58
2022-11-03T01:10:20.260Z,16.55
2022-11-03T01:12:50.436Z,16.80
2022-11-03T01:15:20.553Z,17.73
2022-11-03T01:17:50.577Z,16.83
2022-11-03T01:20:20.815Z,16.65
2022-11-03T01:22:50.994Z,17.05
2022-11-03T01:25:21.263Z,16.55
2022-11-03T01:27:51.477Z,16.83
2022-11-03T01:30:21.666Z,17.45
2022-11-03T01:32:51.717Z,16.52
2022-11-03T01:35:21.975Z,16.13
2022-11-03T01:37:52.206Z,16.65
2022-11-03T01:40:22.665Z,17.67
2022-11-03T01:42:53.172Z,16.08
2022-11-03T01:45:24.340Z,17.43
2022-11-03T01:47:54.605Z,15.52
2022-11-03T01:50:24.859Z,16.50
2022-11-03T01:53:01.138Z,16.25
2022-11-03T01:55:37.898Z,15.68
2022-11-03T01:58:19.733Z,15.68
2022-11-03T02:00:53.586Z,15.77
2022-11-03T02:03:25.749Z,15.68
2022-11-03T02:05:58.117Z,16.00
2022-11-03T02:08:38.269Z,15.93
2022-11-03T02:11:28.421Z,15.90
2022-11-03T02:13:58.621Z,16.13
2022-11-03T02:16:31.716Z,15.93
2022-11-03T02:19:05.139Z,15.45
2022-11-03T02:22:00.845Z,15.60
2022-11-03T02:24:54.132Z,15.05
2022-11-03T02:27:25.030Z,14.10
2022-11-03T02:29:55.503Z,15.50
2022-11-03T02:32:41.066Z,14.95
2022-11-03T02:35:43.038Z,15.35
2022-11-03T02:38:17.266Z,14.75
2022-11-03T02:40:56.415Z,14.70
2022-11-03T02:43:28.666Z,14.23
2022-11-03T02:45:59.062Z,14.23
2022-11-03T02:48:29.297Z,15.65
2022-11-03T02:50:59.449Z,14.85
2022-11-03T02:53:31.884Z,14.20
2022-11-03T02:56:15.501Z,14.25
2022-11-03T02:59:09.231Z,13.80
2022-11-03T03:01:53.110Z,14.00
2022-11-03T03:04:42.637Z,14.02
2022-11-03T03:07:26.481Z,14.05
2022-11-03T03:10:12.526Z,14.20
2022-11-03T03:12:55.227Z,14.75
2022-11-03T03:15:50.751Z,13.10
2022-11-03T03:18:27.349Z,13.88
2022-11-03T03:21:04.217Z,13.73
2022-11-03T03:23:47.216Z,13.63
2022-11-03T03:26:27.210Z,14.20
2022-11-03T03:29:04.392Z,13.50
2022-11-03T03:31:40.908Z,13.48
2022-11-03T03:34:31.542Z,13.75
2022-11-03T03:37:04.324Z,13.45
2022-11-03T03:39:38.720Z,13.18
2022-11-03T03:42:13.325Z,13.90
2022-11-03T03:44:45.799Z,13.18
2022-11-03T03:47:23.124Z,12.60
2022-11-03T03:49:53.518Z,13.85
2022-11-03T03:52:24.305Z,13.32
2022-11-03T03:54:55.174Z,13.40
2022-11-03T03:57:29.156Z,12.32
2022-11-03T03:59:59.540Z,13.05
2022-11-03T04:02:29.827Z,12.85
2022-11-03T04:05:00.765Z,12.95
2022-11-03T04:07:49.060Z,13.02
2022-11-03T04:10:21.148Z,12.05
2022-11-03T04:13:10.096Z,12.27
2022-11-03T04:15:55.419Z,12.25
2022-11-03T04:18:44.481Z,11.32
2022-11-03T04:21:35.586Z,11.57
2022-11-03T04:24:06.162Z,11.93
2022-11-03T04:26:36.443Z,12.40
2022-11-03T04:29:12.299Z,12.23
2022-11-03T04:31:42.626Z,12.20
2022-11-03T04:34:16.800Z,11.88
2022-11-03T04:36:47.206Z,12.05
2022-11-03T04:39:22.492Z,13.00
2022-11-03T04:41:52.800Z,11.65
2022-11-03T04:44:23.092Z,12.15
2022-11-03T04:46:53.136Z,10.63
2022-11-03T04:49:26.817Z,11.88
2022-11-03T04:51:57.014Z,10.88
2022-11-03T04:54:27.424Z,10.88
2022-11-03T04:56:58.421Z,11.00
2022-11-03T04:59:28.952Z,11.30
2022-11-03T05:01:59.670Z,11.07
2022-11-03T05:04:30.023Z,11.23
2022-11-03T05:07:00.217Z,11.98
2022-11-03T05:09:32.930Z,11.43
2022-11-03T05:12:03.155Z,10.98
2022-11-03T05:14:35.164Z,11.40
2022-11-03T05:17:20.919Z,11.60
2022-11-03T05:19:52.920Z,11.23
2022-11-03T05:22:25.177Z,11.43
2022-11-03T05:25:00.938Z,10.68
2022-11-03T05:27:31.263Z,11.55
2022-11-03T05:30:03.460Z,11.50
2022-11-03T05:32:36.690Z,11.10
2022-11-03T05:35:14.248Z,11.13
2022-11-03T05:37:45.072Z,11.38
2022-11-03T05:40:24.968Z,11.15
2022-11-03T05:43:01.366Z,10.90
2022-11-03T05:45:36.804Z,10.82
2022-11-03T05:48:28.933Z,10.38
2022-11-03T05:51:02.520Z,10.55
2022-11-03T05:53:38.317Z,11.85
2022-11-03T05:56:09.658Z,10.43
2022-11-03T05:58:43.376Z,10.10
2022-11-03T06:01:22.022Z,10.85
2022-11-03T06:03:52.456Z,10.88
2022-11-03T06:06:32.496Z,11.00
2022-11-03T06:09:06.616Z,10.52
2022-11-03T06:11:39.819Z,10.50
2022-11-03T06:14:24.505Z,10.57
2022-11-03T06:17:00.571Z,10.20
2022-11-03T06:19:54.514Z,10.70
2022-11-03T06:22:32.723Z,10.60
2022-11-03T06:25:15.264Z,10.52
2022-11-03T06:27:45.649Z,10.70
2022-11-03T06:30:33.580Z,11.57
2022-11-03T06:33:13.221Z,10.65
2022-11-03T06:35:43.462Z,10.98
2022-11-03T06:38:34.069Z,10.95
2022-11-03T06:41:04.504Z,11.57
2022-11-03T06:43:44.303Z,11.07
2022-11-03T06:46:23.368Z,10.90
2022-11-03T06:48:56.498Z,12.27
2022-11-03T06:51:31.966Z,12.02
2022-11-03T06:54:03.793Z,11.48
2022-11-03T06:56:39.130Z,11.48
2022-11-03T06:59:16.457Z,10.95
2022-11-03T07:01:52.267Z,10.98
2022-11-03T07:04:26.205Z,11.18
2022-11-03T07:06:59.520Z,11.43
2022-11-03T07:09:30.190Z,11.40
2022-11-03T07:12:03.095Z,11.25
2022-11-03T07:14:36.659Z,11.48
2022-11-03T07:17:09.634Z,10.70
2022-11-03T07:19:44.703Z,11.90
2022-11-03T07:22:29.460Z,11.07
2022-11-03T07:25:05.986Z,11.32
2022-11-03T07:27:40.905Z,10.95
2022-11-03T07:30:11.051Z,11.13
2022-11-03T07:32:42.138Z,11.93
2022-11-03T07:35:15.089Z,11.68
2022-11-03T07:37:46.081Z,11.60
2022-11-03T07:40:30.403Z,10.63
2022-11-03T07:43:14.816Z,11.50
2022-11-03T07:45:54.207Z,11.70
2022-11-03T07:48:44.830Z,11.98
2022-11-03T07:51:24.052Z,11.63
2022-11-03T07:53:58.511Z,11.57
2022-11-03T07:56:30.911Z,11.38
2022-11-03T07:59:15.713Z,11.43
2022-11-03T08:01:58.595Z,11.98
2022-11-03T08:04:32.894Z,11.85
2022-11-03T08:07:03.274Z,11.00
2022-11-03T08:09:33.566Z,11.77
2022-11-03T08:12:03.816Z,11.10
2022-11-03T08:14:34.213Z,11.77
2022-11-03T08:17:04.423Z,12.00
2022-11-03T08:19:34.777Z,11.35
2022-11-03T08:22:05.010Z,12.57
2022-11-03T08:24:35.285Z,12.23
2022-11-03T08:27:06.780Z,12.05
2022-11-03T08:29:37.635Z,11.73
2022-11-03T08:32:08.152Z,12.25
2022-11-03T08:34:38.171Z,12.07
2022-11-03T08:37:08.441Z,12.15
2022-11-03T08:39:38.543Z,11.77
2022-11-03T08:42:08.588Z,12.18
2022-11-03T08:44:39.227Z,11.98
2022-11-03T08:47:09.871Z,11.73
2022-11-03T08:49:40.209Z,12.60
2022-11-03T08:52:10.421Z,12.63
2022-11-03T08:54:40.687Z,11.60
2022-11-03T08:57:10.924Z,12.48
2022-11-03T08:59:41.287Z,11.45
2022-11-03T09:02:11.447Z,12.90
2022-11-03T09:04:41.643Z,12.40
2022-11-03T09:07:11.852Z,12.25
2022-11-03T09:12:32.465Z,12.20
2022-11-03T09:15:02.666Z,12.95
2022-11-03T09:17:32.998Z,12.63
2022-11-03T09:20:03.311Z,12.10
2022-11-03T09:22:33.603Z,12.55
2022-11-03T09:25:03.833Z,12.45
2022-11-03T09:27:34.755Z,12.07
2022-11-03T09:30:13.418Z,12.13
2022-11-03T09:32:44.580Z,11.30
2022-11-03T09:35:16.835Z,13.10
2022-11-03T09:37:47.123Z,11.57
2022-11-03T09:40:19.762Z,11.43
2022-11-03T09:42:50.306Z,11.93
2022-11-03T09:45:20.493Z,11.50
2022-11-03T09:47:50.865Z,12.55
2022-11-03T09:50:23.323Z,11.88
2022-11-03T09:52:56.563Z,11.55
2022-11-03T09:55:29.535Z,11.55
2022-11-03T09:58:02.958Z,12.40
2022-11-03T10:00:33.237Z,11.82
2022-11-03T10:03:07.062Z,11.93
2022-11-03T10:05:37.646Z,12.65
2022-11-03T10:08:18.301Z,12.57
2022-11-03T10:10:52.973Z,12.70
2022-11-03T10:13:45.068Z,12.93
2022-11-03T10:16:19.914Z,12.38
2022-11-03T10:18:50.405Z,11.98
2022-11-03T10:21:21.624Z,12.38
2022-11-03T10:23:52.535Z,12.80
2022-11-03T10:26:23.703Z,12.00
2022-11-03T10:29:08.712Z,12.52
2022-11-03T10:32:01.012Z,12.30
2022-11-03T10:34:36.167Z,12.35
2022-11-03T10:37:26.594Z,12.75
2022-11-03T10:40:01.002Z,12.88
2022-11-03T10:42:35.926Z,12.80
2022-11-03T10:45:23.636Z,12.20
2022-11-03T10:48:07.314Z,11.13
2022-11-03T10:50:37.828Z,12.05
2022-11-03T10:53:09.065Z,12.67
2022-11-03T10:58:14.656Z,11.55
2022-11-03T11:00:45.224Z,11.63
2022-11-03T11:03:20.646Z,12.70
2022-11-03T11:05:51.642Z,11.30
2022-11-03T11:08:26.540Z,13.00
2022-11-03T11:10:57.326Z,11.63
2022-11-03T11:13:29.877Z,12.07
2022-11-03T11:16:05.005Z,12.27
2022-11-03T11:18:35.326Z,12.52
2022-11-03T11:21:21.501Z,12.93
2022-11-03T11:23:54.820Z,12.90
2022-11-03T11:26:27.968Z,13.00
2022-11-03T11:29:13.386Z,11.63
2022-11-03T11:31:44.963Z,12.57
2022-11-03T11:34:20.884Z,13.85
2022-11-03T11:37:01.566Z,14.18
2022-11-03T11:39:34.092Z,11.75
2022-11-03T11:42:23.507Z,15.15
2022-11-03T11:45:00.183Z,13.98
2022-11-03T11:47:48.382Z,15.27
2022-11-03T11:50:24.671Z,14.77
2022-11-03T11:53:13.374Z,14.50
2022-11-03T11:56:05.170Z,15.73
2022-11-03T11:58:38.106Z,14.52
2022-11-03T12:01:35.776Z,13.90
2022-11-03T12:04:20.180Z,14.23
2022-11-03T12:06:50.392Z,14.50
2022-11-03T12:09:25.911Z,15.32
2022-11-03T12:12:00.514Z,13.50
2022-11-03T12:14:42.620Z,15.10
2022-11-03T12:17:19.304Z,17.27
2022-11-03T12:19:51.988Z,15.88
2022-11-03T12:22:31.608Z,16.02
2022-11-03T12:25:15.028Z,17.20
2022-11-03T12:27:46.006Z,14.38
2022-11-03T12:30:19.502Z,15.77
2022-11-03T12:32:50.127Z,15.68
2022-11-03T12:35:20.565Z,15.52
2022-11-03T12:37:50.748Z,16.35
2022-11-03T12:40:21.853Z,14.95
2022-11-03T12:42:52.852Z,16.67
2022-11-03T12:45:23.016Z,16.05
2022-11-03T12:47:53.332Z,16.05
2022-11-03T12:50:23.811Z,17.80
2022-11-03T12:52:54.007Z,17.80
2022-11-03T12:55:24.840Z,17.02
2022-11-03T12:57:55.115Z,17.40
2022-11-03T13:00:26.048Z,16.48
2022-11-03T13:02:56.739Z,17.27
2022-11-03T13:05:28.117Z,17.88
2022-11-03T13:10:28.019Z,17.73
2022-11-03T13:12:58.320Z,18.40
2022-11-03T13:15:28.587Z,21.27
2022-11-03T13:18:13.028Z,20.75
2022-11-03T13:20:45.292Z,22.08
2022-11-03T13:25:40.546Z,30.70
2022-11-03T13:28:10.700Z,44.70
2022-11-03T13:30:42.489Z,32.85
2022-11-03T13:33:12.787Z,25.98
2022-11-03T13:35:43.285Z,24.07
2022-11-03T13:38:13.504Z,22.92
2022-11-03T13:40:56.331Z,22.60
2022-11-03T13:43:28.237Z,22.77
2022-11-03T13:46:04.514Z,21.40
2022-11-03T13:49:33.975Z,20.98
2022-11-03T13:51:25.545Z,20.17
2022-11-03T13:59:37.839Z,19.92
2022-11-03T14:04:59.825Z,21.42
2022-11-03T14:07:30.927Z,21.53
2022-11-03T14:10:03.946Z,21.15
2022-11-03T14:12:34.865Z,22.20
2022-11-03T14:15:10.955Z,22.13
2022-11-03T14:17:42.601Z,24.10
2022-11-03T14:20:15.438Z,23.67
2022-11-03T14:22:45.975Z,24.35
2022-11-03T14:25:16.269Z,26.10
2022-11-03T14:27:46.770Z,27.33
2022-11-03T14:30:17.429Z,25.70
2022-11-03T14:32:47.929Z,25.15
2022-11-03T14:35:18.330Z,23.92
2022-11-03T14:37:48.868Z,24.80
2022-11-03T14:40:38.994Z,24.00
2022-11-03T14:43:09.746Z,23.38
2022-11-03T14:45:42.525Z,23.05
2022-11-03T14:48:13.228Z,24.23
2022-11-03T14:50:43.563Z,22.85
2022-11-03T14:53:14.214Z,22.50
2022-11-03T14:55:44.455Z,23.23
2022-11-03T14:58:15.029Z,23.80
2022-11-03T15:00:45.757Z,21.47
2022-11-03T15:03:16.121Z,23.53
2022-11-03T15:05:46.605Z,22.03
2022-11-03T15:08:19.358Z,22.10
2022-11-03T15:10:49.857Z,20.10
2022-11-03T15:13:20.322Z,20.75
2022-11-03T15:15:50.922Z,18.30
2022-11-03T15:18:21.654Z,19.70
2022-11-03T15:20:52.259Z,18.70
2022-11-03T15:26:14.829Z,18.30
2022-11-03T15:28:45.165Z,17.40
2022-11-03T15:31:15.505Z,17.42
2022-11-03T15:33:45.790Z,17.95
2022-11-03T15:36:16.079Z,16.30
2022-11-03T15:38:46.486Z,17.15
2022-11-03T15:41:19.624Z,16.25
2022-11-03T15:43:52.082Z,15.90
2022-11-03T15:46:22.648Z,14.93
2022-11-03T15:48:53.400Z,14.90
2022-11-03T15:51:23.750Z,15.47
2022-11-03T15:53:58.400Z,15.53
2022-11-03T15:56:30.188Z,15.57
2022-11-03T15:59:00.648Z,14.98
2022-11-03T16:01:31.590Z,14.23
2022-11-03T16:04:02.201Z,14.45
2022-11-03T16:07:01.744Z,15.45
2022-11-03T16:09:22.819Z,15.38
2022-11-03T16:11:53.061Z,15.70
2022-11-03T16:14:23.505Z,14.20
2022-11-03T16:16:53.946Z,13.52
2022-11-03T16:19:24.390Z,14.30
2022-11-03T16:21:54.700Z,14.27
2022-11-03T16:24:33.370Z,12.88
2022-11-03T16:27:06.993Z,13.68
2022-11-03T16:32:06.929Z,12.93
2022-11-03T16:34:37.155Z,13.18
2022-11-03T16:37:07.378Z,13.85
2022-11-03T16:39:38.474Z,12.82
2022-11-03T16:42:09.123Z,13.02
2022-11-03T16:44:39.361Z,12.83
2022-11-03T16:47:09.566Z,13.43
2022-11-03T16:49:43.801Z,13.88
2022-11-03T16:52:14.014Z,12.50
2022-11-03T16:54:44.228Z,13.93
2022-11-03T16:57:14.501Z,13.52
2022-11-03T16:59:44.731Z,13.63
2022-11-03T17:02:16.641Z,12.98
2022-11-03T17:04:50.642Z,13.90
2022-11-03T17:07:20.821Z,13.98
2022-11-03T17:09:51.111Z,13.57
2022-11-03T17:12:21.254Z,14.98
2022-11-03T17:14:55.568Z,15.25
2022-11-03T17:17:27.427Z,15.27
2022-11-03T17:19:57.793Z,15.05
2022-11-03T17:22:28.178Z,14.53
2022-11-03T17:24:58.457Z,14.80
2022-11-03T17:27:51.262Z,15.77
2022-11-03T17:30:26.888Z,16.17
2022-11-03T17:33:01.707Z,14.80
2022-11-03T17:35:44.140Z,16.23
2022-11-03T17:38:17.591Z,17.48
2022-11-03T17:40:51.010Z,17.60
2022-11-03T17:43:25.486Z,18.05
2022-11-03T17:45:56.196Z,17.42
2022-11-03T17:48:26.541Z,16.80
2022-11-03T17:50:58.768Z,18.92
2022-11-03T17:53:33.226Z,17.42
2022-11-03T17:58:55.720Z,17.73
2022-11-03T18:01:30.504Z,17.48
2022-11-03T18:04:01.390Z,17.65
2022-11-03T18:06:32.333Z,16.90
2022-11-03T18:09:02.575Z,17.92
2022-11-03T18:11:52.102Z,17.88
2022-11-03T18:14:22.831Z,16.70
2022-11-03T18:16:54.505Z,17.33
2022-11-03T18:19:24.856Z,17.15
2022-11-03T18:21:55.162Z,17.95
2022-11-03T18:24:25.308Z,16.83
2022-11-03T18:26:55.443Z,17.52
2022-11-03T18:29:25.474Z,16.67
2022-11-03T18:31:55.723Z,17.58
2022-11-03T18:34:28.488Z,16.90
2022-11-03T18:36:58.913Z,16.45
2022-11-03T18:39:31.024Z,15.77
2022-11-03T18:42:01.270Z,16.30
2022-11-03T18:44:33.013Z,17.55
2022-11-03T18:47:03.247Z,18.52
2022-11-03T18:49:35.374Z,16.98
2022-11-03T18:52:10.104Z,17.73
2022-11-03T18:54:42.890Z,16.10
2022-11-03T18:57:15.092Z,17.73
2022-11-03T18:59:47.437Z,17.20
2022-11-03T19:02:20.750Z,17.50
2022-11-03T19:04:51.807Z,17.13
2022-11-03T19:07:32.231Z,17.15
2022-11-03T19:10:03.137Z,16.75
2022-11-03T19:12:38.834Z,16.13
2022-11-03T19:15:10.455Z,16.65
2022-11-03T19:17:42.244Z,17.20
2022-11-03T19:20:16.780Z,17.73
2022-11-03T19:22:48.239Z,16.67
2022-11-03T19:25:18.723Z,16.73
2022-11-03T19:27:50.719Z,17.67
2022-11-03T19:30:22.331Z,18.17
2022-11-03T19:35:36.064Z,16.88
2022-11-03T19:38:11.781Z,18.08
2022-11-03T19:41:06.459Z,16.10
2022-11-03T19:43:37.136Z,18.27
2022-11-03T19:46:08.010Z,16.67
2022-11-03T19:48:38.240Z,18.23
2022-11-03T19:51:10.343Z,17.17
2022-11-03T19:53:45.972Z,17.38
2022-11-03T19:56:21.128Z,17.70
2022-11-03T19:58:51.331Z,17.30
2022-11-03T20:01:21.833Z,17.00
2022-11-03T20:03:52.547Z,17.30
2022-11-03T20:06:22.927Z,16.75
2022-11-03T20:08:53.496Z,16.60
2022-11-03T20:11:24.317Z,18.00
2022-11-03T20:13:55.277Z,16.73
2022-11-03T20:16:25.815Z,16.95
2022-11-03T20:18:56.108Z,16.60
2022-11-03T20:21:31.442Z,17.85
2022-11-03T20:24:04.380Z,16.05
2022-11-03T20:26:35.993Z,17.75
2022-11-03T20:29:06.479Z,16.58
2022-11-03T20:31:36.859Z,17.63
2022-11-03T20:34:07.093Z,16.65
2022-11-03T20:36:37.525Z,17.88
2022-11-03T20:39:08.586Z,16.85
2022-11-03T20:41:38.948Z,17.85
2022-11-03T20:44:09.207Z,16.70
2022-11-03T20:46:40.023Z,17.63
2022-11-03T20:49:10.369Z,17.53
2022-11-03T20:51:46.052Z,16.37
2022-11-03T20:54:22.379Z,18.00
2022-11-03T20:56:58.301Z,16.30
2022-11-03T20:59:30.140Z,16.27
2022-11-03T21:02:01.835Z,15.95
2022-11-03T21:04:34.103Z,15.33
2022-11-03T21:07:04.584Z,16.40
2022-11-03T21:09:34.718Z,15.45
2022-11-03T21:12:04.783Z,15.75
2022-11-03T21:14:37.588Z,15.68
2022-11-03T21:17:33.980Z,16.85
2022-11-03T21:20:11.839Z,15.55
2022-11-03T21:22:52.316Z,16.38
2022-11-03T21:25:25.388Z,17.58
2022-11-03T21:27:56.901Z,15.43
2022-11-03T21:30:27.196Z,15.70
2022-11-03T21:32:57.500Z,15.17
2022-11-03T21:35:27.970Z,14.73
2022-11-03T21:37:58.324Z,17.27
2022-11-03T21:40:28.532Z,16.02
2022-11-03T21:43:17.149Z,16.02
2022-11-03T21:45:47.858Z,16.60
2022-11-03T21:48:36.734Z,15.37
2022-11-03T21:51:07.160Z,15.43
2022-11-03T21:53:37.586Z,15.43
2022-11-03T21:56:11.671Z,15.43
2022-11-03T21:58:45.554Z,15.73
2022-11-03T22:01:16.675Z,13.90
2022-11-03T22:06:17.025Z,16.55
2022-11-03T22:08:47.462Z,15.25
2022-11-03T22:11:23.928Z,14.20
2022-11-03T22:13:58.439Z,15.18
2022-11-03T22:16:39.064Z,15.55
2022-11-03T22:19:41.796Z,14.77
2022-11-03T22:22:35.823Z,15.00
2022-11-03T22:25:24.141Z,15.27
2022-11-03T22:27:54.519Z,14.77
2022-11-03T22:30:43.304Z,15.65
2022-11-03T22:33:15.446Z,15.55
2022-11-03T22:36:04.031Z,15.90
2022-11-03T22:38:52.488Z,16.80
2022-11-03T22:41:41.134Z,15.88
2022-11-03T22:44:29.587Z,16.58
2022-11-03T22:47:02.722Z,16.15
2022-11-03T22:49:33.696Z,15.93
2022-11-03T22:52:04.137Z,17.23
2022-11-03T22:54:34.510Z,17.05
2022-11-03T22:57:57.712Z,18.30
2022-11-03T23:00:27.966Z,18.38
2022-11-03T23:02:58.043Z,16.90
2022-11-03T23:05:28.098Z,17.55
2022-11-03T23:07:58.744Z,16.38
2022-11-03T23:10:30.650Z,18.05
2022-11-03T23:13:01.225Z,19.70
2022-11-03T23:15:34.341Z,18.70
2022-11-03T23:18:25.148Z,19.08
2022-11-03T23:21:10.383Z,17.13
2022-11-03T23:24:00.450Z,18.23
2022-11-03T23:26:30.655Z,17.10
2022-11-03T23:29:00.867Z,16.00
2022-11-03T23:31:31.207Z,16.58
2022-11-03T23:34:02.122Z,17.05
2022-11-03T23:36:32.559Z,17.20
2022-11-03T23:39:03.555Z,19.48
2022-11-03T23:41:33.844Z,18.77
2022-11-03T23:44:04.066Z,19.83
2022-11-03T23:46:52.831Z,19.15
2022-11-03T23:49:23.288Z,17.60
2022-11-03T23:51:53.974Z,19.95
2022-11-03T23:54:24.240Z,18.00
2022-11-03T23:57:12.569Z,18.10
2022-11-03T23:59:42.920Z,17.90
